sensor_id;sensor_type;location;lat;lon;timestamp;temperature;humidity
12688;DHT22;6408;59.388;17.798;2024-01-07T00:01:13;-13.30;99.90
12688;DHT22;6408;59.388;17.798;2024-01-07T00:03:40;-13.20;99.90
12688;DHT22;6408;59.388;17.798;2024-01-07T00:06:08;-13.30;99.90
12688;DHT22;6408;59.388;17.798;2024-01-07T00:08:35;-13.40;99.90
12688;DHT22;6408;59.388;17.798;2024-01-07T00:11:02;-13.40;99.90
12688;DHT22;6408;59.388;17.798;2024-01-07T00:13:29;-13.30;99.90
12688;DHT22;6408;59.388;17.798;2024-01-07T00:15:58;-13.40;99.90
12688;DHT22;6408;59.388;17.798;2024-01-07T00:18:25;-13.40;99.90
12688;DHT22;6408;59.388;17.798;2024-01-07T00:20:53;-13.10;99.90
12688;DHT22;6408;59.388;17.798;2024-01-07T00:23:21;-13.10;99.90
12688;DHT22;6408;59.388;17.798;2024-01-07T00:25:48;-12.90;99.90
12688;DHT22;6408;59.388;17.798;2024-01-07T00:28:15;-12.80;99.90
12688;DHT22;6408;59.388;17.798;2024-01-07T00:30:43;-12.80;99.90
12688;DHT22;6408;59.388;17.798;2024-01-07T00:33:13;-12.90;99.90
12688;DHT22;6408;59.388;17.798;2024-01-07T00:35:40;-13.00;99.90
12688;DHT22;6408;59.388;17.798;2024-01-07T00:38:07;-13.10;99.90
12688;DHT22;6408;59.388;17.798;2024-01-07T00:40:34;-13.10;99.90
12688;DHT22;6408;59.388;17.798;2024-01-07T00:43:01;-13.20;99.90
12688;DHT22;6408;59.388;17.798;2024-01-07T00:45:28;-13.30;99.90
12688;DHT22;6408;59.388;17.798;2024-01-07T00:47:55;-13.30;99.90
12688;DHT22;6408;59.388;17.798;2024-01-07T00:50:24;-13.20;99.90
12688;DHT22;6408;59.388;17.798;2024-01-07T00:52:51;-13.20;99.90
12688;DHT22;6408;59.388;17.798;2024-01-07T00:55:18;-13.20;99.90
12688;DHT22;6408;59.388;17.798;2024-01-07T00:57:47;-13.30;99.90
12688;DHT22;6408;59.388;17.798;2024-01-07T01:00:18;-13.30;99.90
12688;DHT22;6408;59.388;17.798;2024-01-07T01:02:45;-13.30;99.90
12688;DHT22;6408;59.388;17.798;2024-01-07T01:05:13;-13.30;99.90
12688;DHT22;6408;59.388;17.798;2024-01-07T01:07:43;-13.20;99.90
12688;DHT22;6408;59.388;17.798;2024-01-07T01:10:10;-13.00;99.90
12688;DHT22;6408;59.388;17.798;2024-01-07T01:12:37;-12.80;99.90
12688;DHT22;6408;59.388;17.798;2024-01-07T01:15:05;-12.70;99.90
12688;DHT22;6408;59.388;17.798;2024-01-07T01:17:32;-12.80;99.90
12688;DHT22;6408;59.388;17.798;2024-01-07T01:20:00;-12.80;99.90
12688;DHT22;6408;59.388;17.798;2024-01-07T01:22:27;-12.90;99.90
12688;DHT22;6408;59.388;17.798;2024-01-07T01:24:56;-12.90;99.90
12688;DHT22;6408;59.388;17.798;2024-01-07T01:27:23;-12.80;99.90
12688;DHT22;6408;59.388;17.798;2024-01-07T01:29:51;-12.80;99.90
12688;DHT22;6408;59.388;17.798;2024-01-07T01:32:19;-12.90;99.90
12688;DHT22;6408;59.388;17.798;2024-01-07T01:34:46;-13.00;99.90
12688;DHT22;6408;59.388;17.798;2024-01-07T01:37:13;-13.10;99.90
12688;DHT22;6408;59.388;17.798;2024-01-07T01:39:40;-13.10;99.90
12688;DHT22;6408;59.388;17.798;2024-01-07T01:42:09;-13.10;99.90
12688;DHT22;6408;59.388;17.798;2024-01-07T01:44:37;-13.10;99.90
12688;DHT22;6408;59.388;17.798;2024-01-07T01:47:08;-13.10;99.90
12688;DHT22;6408;59.388;17.798;2024-01-07T01:49:35;-13.10;99.90
12688;DHT22;6408;59.388;17.798;2024-01-07T01:52:04;-13.10;99.90
12688;DHT22;6408;59.388;17.798;2024-01-07T01:54:38;-13.00;99.90
12688;DHT22;6408;59.388;17.798;2024-01-07T01:57:06;-13.00;99.90
12688;DHT22;6408;59.388;17.798;2024-01-07T01:59:35;-13.00;99.90
12688;DHT22;6408;59.388;17.798;2024-01-07T02:02:03;-13.00;99.90
12688;DHT22;6408;59.388;17.798;2024-01-07T02:04:30;-12.80;99.90
12688;DHT22;6408;59.388;17.798;2024-01-07T02:06:58;-12.80;99.90
12688;DHT22;6408;59.388;17.798;2024-01-07T02:09:26;-12.90;99.90
12688;DHT22;6408;59.388;17.798;2024-01-07T02:12:02;-12.70;99.90
12688;DHT22;6408;59.388;17.798;2024-01-07T02:14:30;-12.70;99.90
12688;DHT22;6408;59.388;17.798;2024-01-07T02:17:00;-12.70;99.90
12688;DHT22;6408;59.388;17.798;2024-01-07T02:19:29;-12.70;99.90
12688;DHT22;6408;59.388;17.798;2024-01-07T02:21:55;-12.70;99.90
12688;DHT22;6408;59.388;17.798;2024-01-07T02:24:24;-12.70;99.90
12688;DHT22;6408;59.388;17.798;2024-01-07T02:26:51;-12.70;99.90
12688;DHT22;6408;59.388;17.798;2024-01-07T02:29:19;-12.70;99.90
12688;DHT22;6408;59.388;17.798;2024-01-07T02:31:46;-12.70;99.90
12688;DHT22;6408;59.388;17.798;2024-01-07T02:34:13;-12.80;99.90
12688;DHT22;6408;59.388;17.798;2024-01-07T02:36:41;-12.90;99.90
12688;DHT22;6408;59.388;17.798;2024-01-07T02:39:08;-13.00;99.90
12688;DHT22;6408;59.388;17.798;2024-01-07T02:41:37;-12.80;99.90
12688;DHT22;6408;59.388;17.798;2024-01-07T02:44:04;-12.60;99.90
12688;DHT22;6408;59.388;17.798;2024-01-07T02:46:31;-12.50;99.90
12688;DHT22;6408;59.388;17.798;2024-01-07T02:48:58;-12.40;99.90
12688;DHT22;6408;59.388;17.798;2024-01-07T02:51:25;-12.30;99.90
12688;DHT22;6408;59.388;17.798;2024-01-07T02:53:52;-12.20;99.90
12688;DHT22;6408;59.388;17.798;2024-01-07T02:56:19;-12.40;99.90
12688;DHT22;6408;59.388;17.798;2024-01-07T02:58:48;-12.30;99.90
12688;DHT22;6408;59.388;17.798;2024-01-07T03:01:15;-12.30;99.90
12688;DHT22;6408;59.388;17.798;2024-01-07T03:03:42;-12.30;99.90
12688;DHT22;6408;59.388;17.798;2024-01-07T03:06:10;-12.30;99.90
12688;DHT22;6408;59.388;17.798;2024-01-07T03:08:37;-12.30;99.90
12688;DHT22;6408;59.388;17.798;2024-01-07T03:11:05;-12.40;99.90
12688;DHT22;6408;59.388;17.798;2024-01-07T03:13:33;-12.40;99.90
12688;DHT22;6408;59.388;17.798;2024-01-07T03:16:01;-12.40;99.90
12688;DHT22;6408;59.388;17.798;2024-01-07T03:18:28;-12.40;99.90
12688;DHT22;6408;59.388;17.798;2024-01-07T03:20:55;-12.30;99.90
12688;DHT22;6408;59.388;17.798;2024-01-07T03:23:22;-12.40;99.90
12688;DHT22;6408;59.388;17.798;2024-01-07T03:25:49;-12.50;99.90
12688;DHT22;6408;59.388;17.798;2024-01-07T03:28:17;-12.60;99.90
12688;DHT22;6408;59.388;17.798;2024-01-07T03:30:45;-12.60;99.90
12688;DHT22;6408;59.388;17.798;2024-01-07T03:33:14;-12.60;99.90
12688;DHT22;6408;59.388;17.798;2024-01-07T03:35:41;-12.50;99.90
12688;DHT22;6408;59.388;17.798;2024-01-07T03:38:08;-12.40;99.90
12688;DHT22;6408;59.388;17.798;2024-01-07T03:40:35;-12.40;99.90
12688;DHT22;6408;59.388;17.798;2024-01-07T03:43:02;-12.40;99.90
12688;DHT22;6408;59.388;17.798;2024-01-07T03:45:28;-12.40;99.90
12688;DHT22;6408;59.388;17.798;2024-01-07T03:47:57;-12.50;99.90
12688;DHT22;6408;59.388;17.798;2024-01-07T03:50:25;-12.60;99.90
12688;DHT22;6408;59.388;17.798;2024-01-07T03:52:52;-12.60;99.90
12688;DHT22;6408;59.388;17.798;2024-01-07T03:55:19;-12.60;99.90
12688;DHT22;6408;59.388;17.798;2024-01-07T03:57:46;-12.60;99.90
12688;DHT22;6408;59.388;17.798;2024-01-07T04:00:14;-12.60;99.90
12688;DHT22;6408;59.388;17.798;2024-01-07T04:02:42;-12.60;99.90
12688;DHT22;6408;59.388;17.798;2024-01-07T04:05:10;-12.70;99.90
12688;DHT22;6408;59.388;17.798;2024-01-07T04:07:39;-12.80;99.90
12688;DHT22;6408;59.388;17.798;2024-01-07T04:10:09;-12.80;99.90
12688;DHT22;6408;59.388;17.798;2024-01-07T04:12:36;-12.90;99.90
12688;DHT22;6408;59.388;17.798;2024-01-07T04:15:04;-12.90;99.90
12688;DHT22;6408;59.388;17.798;2024-01-07T04:17:32;-12.90;99.90
12688;DHT22;6408;59.388;17.798;2024-01-07T04:19:59;-12.90;99.90
12688;DHT22;6408;59.388;17.798;2024-01-07T04:22:26;-12.60;99.90
12688;DHT22;6408;59.388;17.798;2024-01-07T04:24:54;-12.50;99.90
12688;DHT22;6408;59.388;17.798;2024-01-07T04:27:22;-12.60;99.90
12688;DHT22;6408;59.388;17.798;2024-01-07T04:29:50;-12.80;99.90
12688;DHT22;6408;59.388;17.798;2024-01-07T04:32:17;-12.90;99.90
12688;DHT22;6408;59.388;17.798;2024-01-07T04:34:45;-13.00;99.90
12688;DHT22;6408;59.388;17.798;2024-01-07T04:37:12;-13.00;99.90
12688;DHT22;6408;59.388;17.798;2024-01-07T04:39:47;-13.00;99.90
12688;DHT22;6408;59.388;17.798;2024-01-07T04:42:17;-13.00;99.90
12688;DHT22;6408;59.388;17.798;2024-01-07T04:44:44;-13.00;99.90
12688;DHT22;6408;59.388;17.798;2024-01-07T04:47:26;-13.00;99.90
12688;DHT22;6408;59.388;17.798;2024-01-07T04:49:53;-13.10;99.90
12688;DHT22;6408;59.388;17.798;2024-01-07T04:52:21;-13.10;99.90
12688;DHT22;6408;59.388;17.798;2024-01-07T04:54:50;-13.20;99.90
12688;DHT22;6408;59.388;17.798;2024-01-07T04:57:19;-13.30;99.90
12688;DHT22;6408;59.388;17.798;2024-01-07T04:59:47;-13.30;99.90
12688;DHT22;6408;59.388;17.798;2024-01-07T05:02:16;-13.10;99.90
12688;DHT22;6408;59.388;17.798;2024-01-07T05:04:43;-12.90;99.90
12688;DHT22;6408;59.388;17.798;2024-01-07T05:07:10;-12.80;99.90
12688;DHT22;6408;59.388;17.798;2024-01-07T05:09:39;-12.70;99.90
12688;DHT22;6408;59.388;17.798;2024-01-07T05:12:06;-12.90;99.90
12688;DHT22;6408;59.388;17.798;2024-01-07T05:14:35;-12.90;99.90
12688;DHT22;6408;59.388;17.798;2024-01-07T05:17:03;-12.90;99.90
12688;DHT22;6408;59.388;17.798;2024-01-07T05:19:30;-13.00;99.90
12688;DHT22;6408;59.388;17.798;2024-01-07T05:21:59;-13.20;99.90
12688;DHT22;6408;59.388;17.798;2024-01-07T05:24:27;-13.20;99.90
12688;DHT22;6408;59.388;17.798;2024-01-07T05:26:54;-13.10;99.90
12688;DHT22;6408;59.388;17.798;2024-01-07T05:29:21;-13.20;99.90
12688;DHT22;6408;59.388;17.798;2024-01-07T05:31:50;-13.30;99.90
12688;DHT22;6408;59.388;17.798;2024-01-07T05:34:17;-13.50;99.90
12688;DHT22;6408;59.388;17.798;2024-01-07T05:36:44;-13.50;99.90
12688;DHT22;6408;59.388;17.798;2024-01-07T05:39:12;-13.20;99.90
12688;DHT22;6408;59.388;17.798;2024-01-07T05:41:39;-13.20;99.90
12688;DHT22;6408;59.388;17.798;2024-01-07T05:44:07;-13.20;99.90
12688;DHT22;6408;59.388;17.798;2024-01-07T05:46:37;-13.40;99.90
12688;DHT22;6408;59.388;17.798;2024-01-07T05:49:07;-13.50;99.90
12688;DHT22;6408;59.388;17.798;2024-01-07T05:51:38;-13.60;99.90
12688;DHT22;6408;59.388;17.798;2024-01-07T05:54:05;-13.60;99.90
12688;DHT22;6408;59.388;17.798;2024-01-07T05:56:32;-13.50;99.90
12688;DHT22;6408;59.388;17.798;2024-01-07T05:59:05;-13.50;99.90
12688;DHT22;6408;59.388;17.798;2024-01-07T06:01:32;-13.40;99.90
12688;DHT22;6408;59.388;17.798;2024-01-07T06:03:59;-13.40;99.90
12688;DHT22;6408;59.388;17.798;2024-01-07T06:06:28;-13.40;99.90
12688;DHT22;6408;59.388;17.798;2024-01-07T06:08:55;-13.50;99.90
12688;DHT22;6408;59.388;17.798;2024-01-07T06:11:22;-13.30;99.90
12688;DHT22;6408;59.388;17.798;2024-01-07T06:13:49;-13.20;99.90
12688;DHT22;6408;59.388;17.798;2024-01-07T06:16:16;-13.30;99.90
12688;DHT22;6408;59.388;17.798;2024-01-07T06:18:43;-13.30;99.90
12688;DHT22;6408;59.388;17.798;2024-01-07T06:21:11;-13.30;99.90
12688;DHT22;6408;59.388;17.798;2024-01-07T06:23:39;-13.30;99.90
12688;DHT22;6408;59.388;17.798;2024-01-07T06:26:06;-13.20;99.90
12688;DHT22;6408;59.388;17.798;2024-01-07T06:28:33;-13.20;99.90
12688;DHT22;6408;59.388;17.798;2024-01-07T06:31:03;-13.20;99.90
12688;DHT22;6408;59.388;17.798;2024-01-07T06:33:30;-13.10;99.90
12688;DHT22;6408;59.388;17.798;2024-01-07T06:35:57;-13.00;99.90
12688;DHT22;6408;59.388;17.798;2024-01-07T06:38:26;-13.00;99.90
12688;DHT22;6408;59.388;17.798;2024-01-07T06:40:54;-13.10;99.90
12688;DHT22;6408;59.388;17.798;2024-01-07T06:43:26;-13.10;99.90
12688;DHT22;6408;59.388;17.798;2024-01-07T06:45:53;-13.20;99.90
12688;DHT22;6408;59.388;17.798;2024-01-07T06:48:20;-13.30;99.90
12688;DHT22;6408;59.388;17.798;2024-01-07T06:50:47;-13.30;99.90
12688;DHT22;6408;59.388;17.798;2024-01-07T06:53:16;-13.30;99.90
12688;DHT22;6408;59.388;17.798;2024-01-07T06:55:44;-13.40;99.90
12688;DHT22;6408;59.388;17.798;2024-01-07T06:58:13;-13.40;99.90
12688;DHT22;6408;59.388;17.798;2024-01-07T07:00:40;-13.50;99.90
12688;DHT22;6408;59.388;17.798;2024-01-07T07:03:08;-13.50;99.90
12688;DHT22;6408;59.388;17.798;2024-01-07T07:05:35;-13.60;99.90
12688;DHT22;6408;59.388;17.798;2024-01-07T07:08:03;-13.60;99.90
12688;DHT22;6408;59.388;17.798;2024-01-07T07:10:30;-13.60;99.90
12688;DHT22;6408;59.388;17.798;2024-01-07T07:12:57;-13.60;99.90
12688;DHT22;6408;59.388;17.798;2024-01-07T07:15:26;-13.70;99.90
12688;DHT22;6408;59.388;17.798;2024-01-07T07:17:54;-13.70;99.90
12688;DHT22;6408;59.388;17.798;2024-01-07T07:20:21;-13.80;99.90
12688;DHT22;6408;59.388;17.798;2024-01-07T07:22:48;-13.80;99.90
12688;DHT22;6408;59.388;17.798;2024-01-07T07:25:16;-13.80;99.90
12688;DHT22;6408;59.388;17.798;2024-01-07T07:27:43;-13.80;99.90
12688;DHT22;6408;59.388;17.798;2024-01-07T07:30:10;-13.60;99.90
12688;DHT22;6408;59.388;17.798;2024-01-07T07:32:42;-13.70;99.90
12688;DHT22;6408;59.388;17.798;2024-01-07T07:35:09;-13.70;99.90
12688;DHT22;6408;59.388;17.798;2024-01-07T07:37:37;-13.80;99.90
12688;DHT22;6408;59.388;17.798;2024-01-07T07:40:06;-13.80;99.90
12688;DHT22;6408;59.388;17.798;2024-01-07T07:42:33;-13.70;99.90
12688;DHT22;6408;59.388;17.798;2024-01-07T07:45:00;-13.80;99.90
12688;DHT22;6408;59.388;17.798;2024-01-07T07:47:29;-13.80;99.90
12688;DHT22;6408;59.388;17.798;2024-01-07T07:49:57;-13.80;99.90
12688;DHT22;6408;59.388;17.798;2024-01-07T07:52:25;-13.70;99.90
12688;DHT22;6408;59.388;17.798;2024-01-07T07:54:52;-13.60;99.90
12688;DHT22;6408;59.388;17.798;2024-01-07T07:57:20;-13.60;99.90
12688;DHT22;6408;59.388;17.798;2024-01-07T07:59:48;-13.60;99.90
12688;DHT22;6408;59.388;17.798;2024-01-07T08:02:15;-13.50;99.90
12688;DHT22;6408;59.388;17.798;2024-01-07T08:04:42;-13.60;99.90
12688;DHT22;6408;59.388;17.798;2024-01-07T08:07:11;-13.50;99.90
12688;DHT22;6408;59.388;17.798;2024-01-07T08:09:38;-13.50;99.90
12688;DHT22;6408;59.388;17.798;2024-01-07T08:12:06;-13.50;99.90
12688;DHT22;6408;59.388;17.798;2024-01-07T08:14:33;-13.50;99.90
12688;DHT22;6408;59.388;17.798;2024-01-07T08:17:01;-13.60;99.90
12688;DHT22;6408;59.388;17.798;2024-01-07T08:19:30;-13.50;99.90
12688;DHT22;6408;59.388;17.798;2024-01-07T08:21:58;-13.50;99.90
12688;DHT22;6408;59.388;17.798;2024-01-07T08:24:33;-13.50;99.90
12688;DHT22;6408;59.388;17.798;2024-01-07T08:27:01;-13.40;99.90
12688;DHT22;6408;59.388;17.798;2024-01-07T08:29:28;-13.40;99.90
12688;DHT22;6408;59.388;17.798;2024-01-07T08:31:57;-13.40;99.90
12688;DHT22;6408;59.388;17.798;2024-01-07T08:34:24;-13.40;99.90
12688;DHT22;6408;59.388;17.798;2024-01-07T08:36:52;-13.50;99.90
12688;DHT22;6408;59.388;17.798;2024-01-07T08:39:20;-13.50;99.90
12688;DHT22;6408;59.388;17.798;2024-01-07T08:41:49;-13.40;99.90
12688;DHT22;6408;59.388;17.798;2024-01-07T08:44:17;-13.40;99.90
12688;DHT22;6408;59.388;17.798;2024-01-07T08:46:45;-13.30;99.90
12688;DHT22;6408;59.388;17.798;2024-01-07T08:49:12;-13.40;99.90
12688;DHT22;6408;59.388;17.798;2024-01-07T08:51:39;-13.40;99.90
12688;DHT22;6408;59.388;17.798;2024-01-07T08:54:07;-13.40;99.90
12688;DHT22;6408;59.388;17.798;2024-01-07T08:56:34;-13.30;99.90
12688;DHT22;6408;59.388;17.798;2024-01-07T08:59:02;-13.20;99.90
12688;DHT22;6408;59.388;17.798;2024-01-07T09:01:30;-13.10;99.90
12688;DHT22;6408;59.388;17.798;2024-01-07T09:03:57;-13.00;99.90
12688;DHT22;6408;59.388;17.798;2024-01-07T09:06:24;-12.80;99.90
12688;DHT22;6408;59.388;17.798;2024-01-07T09:08:51;-12.70;99.90
12688;DHT22;6408;59.388;17.798;2024-01-07T09:11:19;-12.60;99.90
12688;DHT22;6408;59.388;17.798;2024-01-07T09:13:46;-12.50;99.90
12688;DHT22;6408;59.388;17.798;2024-01-07T09:16:17;-12.50;99.90
12688;DHT22;6408;59.388;17.798;2024-01-07T09:18:44;-12.50;99.90
12688;DHT22;6408;59.388;17.798;2024-01-07T09:21:12;-12.50;99.90
12688;DHT22;6408;59.388;17.798;2024-01-07T09:23:39;-12.60;99.90
12688;DHT22;6408;59.388;17.798;2024-01-07T09:26:07;-12.50;99.90
12688;DHT22;6408;59.388;17.798;2024-01-07T09:28:36;-12.50;99.90
12688;DHT22;6408;59.388;17.798;2024-01-07T09:31:04;-12.40;99.90
12688;DHT22;6408;59.388;17.798;2024-01-07T09:33:32;-12.50;99.90
12688;DHT22;6408;59.388;17.798;2024-01-07T09:35:59;-12.50;99.90
12688;DHT22;6408;59.388;17.798;2024-01-07T09:38:26;-12.40;99.90
12688;DHT22;6408;59.388;17.798;2024-01-07T09:40:55;-12.30;99.90
12688;DHT22;6408;59.388;17.798;2024-01-07T09:43:22;-12.40;99.90
12688;DHT22;6408;59.388;17.798;2024-01-07T09:45:51;-12.40;99.90
12688;DHT22;6408;59.388;17.798;2024-01-07T09:48:20;-12.20;99.90
12688;DHT22;6408;59.388;17.798;2024-01-07T09:50:49;-12.20;99.90
12688;DHT22;6408;59.388;17.798;2024-01-07T09:53:16;-12.20;99.90
12688;DHT22;6408;59.388;17.798;2024-01-07T09:55:52;-12.20;99.90
12688;DHT22;6408;59.388;17.798;2024-01-07T09:58:22;-12.20;99.90
12688;DHT22;6408;59.388;17.798;2024-01-07T10:00:49;-12.30;99.90
12688;DHT22;6408;59.388;17.798;2024-01-07T10:03:16;-12.40;99.90
12688;DHT22;6408;59.388;17.798;2024-01-07T10:05:48;-12.40;99.90
12688;DHT22;6408;59.388;17.798;2024-01-07T10:08:15;-12.30;99.90
12688;DHT22;6408;59.388;17.798;2024-01-07T10:10:43;-12.30;99.90
12688;DHT22;6408;59.388;17.798;2024-01-07T10:13:10;-12.30;99.90
12688;DHT22;6408;59.388;17.798;2024-01-07T10:15:37;-12.10;99.90
12688;DHT22;6408;59.388;17.798;2024-01-07T10:18:05;-12.00;99.90
12688;DHT22;6408;59.388;17.798;2024-01-07T10:20:32;-11.90;99.90
12688;DHT22;6408;59.388;17.798;2024-01-07T10:23:01;-11.90;99.90
12688;DHT22;6408;59.388;17.798;2024-01-07T10:25:31;-11.90;99.90
12688;DHT22;6408;59.388;17.798;2024-01-07T10:27:59;-11.90;99.90
12688;DHT22;6408;59.388;17.798;2024-01-07T10:30:27;-11.90;99.90
12688;DHT22;6408;59.388;17.798;2024-01-07T10:32:56;-11.90;99.90
12688;DHT22;6408;59.388;17.798;2024-01-07T10:35:28;-11.90;99.90
12688;DHT22;6408;59.388;17.798;2024-01-07T10:37:56;-11.90;99.90
12688;DHT22;6408;59.388;17.798;2024-01-07T10:40:26;-11.90;99.90
12688;DHT22;6408;59.388;17.798;2024-01-07T10:42:55;-11.90;99.90
12688;DHT22;6408;59.388;17.798;2024-01-07T10:45:23;-11.90;99.90
12688;DHT22;6408;59.388;17.798;2024-01-07T10:47:55;-11.80;99.90
12688;DHT22;6408;59.388;17.798;2024-01-07T10:50:26;-11.80;99.90
12688;DHT22;6408;59.388;17.798;2024-01-07T10:52:58;-11.70;99.90
12688;DHT22;6408;59.388;17.798;2024-01-07T10:55:34;-11.70;99.90
12688;DHT22;6408;59.388;17.798;2024-01-07T10:58:03;-11.60;99.90
12688;DHT22;6408;59.388;17.798;2024-01-07T11:00:31;-11.60;99.90
12688;DHT22;6408;59.388;17.798;2024-01-07T11:03:04;-11.50;99.90
12688;DHT22;6408;59.388;17.798;2024-01-07T11:05:40;-11.40;99.90
12688;DHT22;6408;59.388;17.798;2024-01-07T11:08:18;-11.50;99.90
12688;DHT22;6408;59.388;17.798;2024-01-07T11:10:53;-11.50;99.90
12688;DHT22;6408;59.388;17.798;2024-01-07T11:13:34;-11.40;99.90
12688;DHT22;6408;59.388;17.798;2024-01-07T11:16:04;-11.50;99.90
12688;DHT22;6408;59.388;17.798;2024-01-07T11:18:38;-11.50;99.90
12688;DHT22;6408;59.388;17.798;2024-01-07T11:21:09;-11.30;99.90
12688;DHT22;6408;59.388;17.798;2024-01-07T11:23:42;-11.30;99.90
12688;DHT22;6408;59.388;17.798;2024-01-07T11:26:13;-11.20;99.90
12688;DHT22;6408;59.388;17.798;2024-01-07T11:28:49;-11.10;99.90
12688;DHT22;6408;59.388;17.798;2024-01-07T11:31:17;-11.00;99.90
12688;DHT22;6408;59.388;17.798;2024-01-07T11:33:45;-10.90;99.90
12688;DHT22;6408;59.388;17.798;2024-01-07T11:36:13;-10.80;99.90
12688;DHT22;6408;59.388;17.798;2024-01-07T11:38:43;-10.70;99.90
12688;DHT22;6408;59.388;17.798;2024-01-07T11:41:13;-10.60;99.90
12688;DHT22;6408;59.388;17.798;2024-01-07T11:43:54;-10.50;99.90
12688;DHT22;6408;59.388;17.798;2024-01-07T11:46:21;-10.50;99.90
12688;DHT22;6408;59.388;17.798;2024-01-07T11:48:50;-10.40;99.90
12688;DHT22;6408;59.388;17.798;2024-01-07T11:51:17;-10.30;99.90
12688;DHT22;6408;59.388;17.798;2024-01-07T11:53:46;-10.30;99.90
12688;DHT22;6408;59.388;17.798;2024-01-07T11:56:15;-10.30;99.90
12688;DHT22;6408;59.388;17.798;2024-01-07T11:58:42;-10.40;99.90
12688;DHT22;6408;59.388;17.798;2024-01-07T12:01:09;-10.40;99.90
12688;DHT22;6408;59.388;17.798;2024-01-07T12:03:36;-10.40;99.90
12688;DHT22;6408;59.388;17.798;2024-01-07T12:06:04;-10.40;99.90
12688;DHT22;6408;59.388;17.798;2024-01-07T12:08:31;-10.50;99.90
12688;DHT22;6408;59.388;17.798;2024-01-07T12:10:59;-10.40;99.90
12688;DHT22;6408;59.388;17.798;2024-01-07T12:13:28;-10.40;99.90
12688;DHT22;6408;59.388;17.798;2024-01-07T12:15:55;-10.40;99.90
12688;DHT22;6408;59.388;17.798;2024-01-07T12:18:23;-10.40;99.90
12688;DHT22;6408;59.388;17.798;2024-01-07T12:20:55;-10.40;99.90
12688;DHT22;6408;59.388;17.798;2024-01-07T12:23:24;-10.40;99.90
12688;DHT22;6408;59.388;17.798;2024-01-07T12:25:51;-10.40;99.90
12688;DHT22;6408;59.388;17.798;2024-01-07T12:28:18;-10.40;99.90
12688;DHT22;6408;59.388;17.798;2024-01-07T12:30:47;-10.40;99.90
12688;DHT22;6408;59.388;17.798;2024-01-07T12:33:17;-10.30;99.90
12688;DHT22;6408;59.388;17.798;2024-01-07T12:35:46;-10.30;99.90
12688;DHT22;6408;59.388;17.798;2024-01-07T12:38:14;-10.30;99.90
12688;DHT22;6408;59.388;17.798;2024-01-07T12:40:41;-10.30;99.90
12688;DHT22;6408;59.388;17.798;2024-01-07T12:43:08;-10.30;99.90
12688;DHT22;6408;59.388;17.798;2024-01-07T12:45:35;-10.30;99.90
12688;DHT22;6408;59.388;17.798;2024-01-07T12:48:04;-10.40;99.90
12688;DHT22;6408;59.388;17.798;2024-01-07T12:50:31;-10.40;99.90
12688;DHT22;6408;59.388;17.798;2024-01-07T12:52:59;-10.40;99.90
12688;DHT22;6408;59.388;17.798;2024-01-07T12:55:26;-10.40;99.90
12688;DHT22;6408;59.388;17.798;2024-01-07T12:57:55;-10.40;99.90
12688;DHT22;6408;59.388;17.798;2024-01-07T13:00:24;-10.40;99.90
12688;DHT22;6408;59.388;17.798;2024-01-07T13:02:52;-10.30;99.90
12688;DHT22;6408;59.388;17.798;2024-01-07T13:05:20;-10.30;99.90
12688;DHT22;6408;59.388;17.798;2024-01-07T13:07:49;-10.30;99.90
12688;DHT22;6408;59.388;17.798;2024-01-07T13:10:16;-10.20;99.90
12688;DHT22;6408;59.388;17.798;2024-01-07T13:12:43;-10.20;99.90
12688;DHT22;6408;59.388;17.798;2024-01-07T13:15:10;-10.10;99.90
12688;DHT22;6408;59.388;17.798;2024-01-07T13:17:38;-10.10;99.90
12688;DHT22;6408;59.388;17.798;2024-01-07T13:20:07;-10.10;99.90
12688;DHT22;6408;59.388;17.798;2024-01-07T13:22:38;-10.10;99.90
12688;DHT22;6408;59.388;17.798;2024-01-07T13:25:06;-10.00;99.90
12688;DHT22;6408;59.388;17.798;2024-01-07T13:27:33;-9.90;99.90
12688;DHT22;6408;59.388;17.798;2024-01-07T13:30:02;-10.00;99.90
12688;DHT22;6408;59.388;17.798;2024-01-07T13:32:29;-10.00;99.90
12688;DHT22;6408;59.388;17.798;2024-01-07T13:34:56;-10.00;99.90
12688;DHT22;6408;59.388;17.798;2024-01-07T13:37:23;-10.00;99.90
12688;DHT22;6408;59.388;17.798;2024-01-07T13:39:55;-10.10;99.90
12688;DHT22;6408;59.388;17.798;2024-01-07T13:42:22;-10.20;99.90
12688;DHT22;6408;59.388;17.798;2024-01-07T13:44:49;-10.20;99.90
12688;DHT22;6408;59.388;17.798;2024-01-07T13:47:18;-10.20;99.90
12688;DHT22;6408;59.388;17.798;2024-01-07T13:49:45;-10.20;99.90
12688;DHT22;6408;59.388;17.798;2024-01-07T13:52:12;-10.20;99.90
12688;DHT22;6408;59.388;17.798;2024-01-07T13:54:40;-10.20;99.90
12688;DHT22;6408;59.388;17.798;2024-01-07T13:57:09;-10.20;99.90
12688;DHT22;6408;59.388;17.798;2024-01-07T13:59:38;-10.20;99.90
12688;DHT22;6408;59.388;17.798;2024-01-07T14:02:07;-10.10;99.90
12688;DHT22;6408;59.388;17.798;2024-01-07T14:04:35;-10.10;99.90
12688;DHT22;6408;59.388;17.798;2024-01-07T14:07:05;-10.10;99.90
12688;DHT22;6408;59.388;17.798;2024-01-07T14:09:32;-10.10;99.90
12688;DHT22;6408;59.388;17.798;2024-01-07T14:12:00;-10.00;99.90
12688;DHT22;6408;59.388;17.798;2024-01-07T14:14:29;-10.10;99.90
12688;DHT22;6408;59.388;17.798;2024-01-07T14:16:56;-10.00;99.90
12688;DHT22;6408;59.388;17.798;2024-01-07T14:19:24;-9.90;99.90
12688;DHT22;6408;59.388;17.798;2024-01-07T14:21:53;-9.90;99.90
12688;DHT22;6408;59.388;17.798;2024-01-07T14:24:21;-10.00;99.90
12688;DHT22;6408;59.388;17.798;2024-01-07T14:26:52;-10.00;99.90
12688;DHT22;6408;59.388;17.798;2024-01-07T14:29:21;-10.00;99.90
12688;DHT22;6408;59.388;17.798;2024-01-07T14:31:52;-10.00;99.90
12688;DHT22;6408;59.388;17.798;2024-01-07T14:34:19;-10.00;99.90
12688;DHT22;6408;59.388;17.798;2024-01-07T14:36:47;-10.00;99.90
12688;DHT22;6408;59.388;17.798;2024-01-07T14:39:14;-10.00;99.90
12688;DHT22;6408;59.388;17.798;2024-01-07T14:41:42;-10.00;99.90
12688;DHT22;6408;59.388;17.798;2024-01-07T14:44:11;-10.10;99.90
12688;DHT22;6408;59.388;17.798;2024-01-07T14:46:38;-10.00;99.90
12688;DHT22;6408;59.388;17.798;2024-01-07T14:49:07;-10.10;99.90
12688;DHT22;6408;59.388;17.798;2024-01-07T14:51:34;-10.20;99.90
12688;DHT22;6408;59.388;17.798;2024-01-07T14:54:04;-10.20;99.90
12688;DHT22;6408;59.388;17.798;2024-01-07T14:56:33;-10.10;99.90
12688;DHT22;6408;59.388;17.798;2024-01-07T14:59:01;-10.10;99.90
12688;DHT22;6408;59.388;17.798;2024-01-07T15:01:32;-10.10;99.90
12688;DHT22;6408;59.388;17.798;2024-01-07T15:03:59;-10.10;99.90
12688;DHT22;6408;59.388;17.798;2024-01-07T15:06:39;-10.10;99.90
12688;DHT22;6408;59.388;17.798;2024-01-07T15:09:12;-10.20;99.90
12688;DHT22;6408;59.388;17.798;2024-01-07T15:11:40;-10.10;99.90
12688;DHT22;6408;59.388;17.798;2024-01-07T15:14:10;-10.20;99.90
12688;DHT22;6408;59.388;17.798;2024-01-07T15:16:38;-10.20;99.90
12688;DHT22;6408;59.388;17.798;2024-01-07T15:19:05;-10.30;99.90
12688;DHT22;6408;59.388;17.798;2024-01-07T15:21:33;-10.30;99.90